Zamokta, Russia
Current Conditions -  °F | °C
As of 8:30 PM on Friday 19 Dec 2014 (Local Time) from UIUU Reporting Station
Few Clouds Few Clouds  
Wind Chill:   Ceiling: Unl
Heat Index:   Visibility: 6mi
Dew Point:   Wind: 4mph
Humidity: 79%   Direction: 190°S
Pressure: 30.39"   Gusts: NA
Location:  52.77°N, 109.97°E
Report Text: UIUU 191230Z 19002MPS 160V240 9999 FEW040CB M13/M16 Q1029 NOSIGRMK QFE726/0969 26410550
Loading
Personal Weather Stations






























Interactive Weather Map New forecast layout! Learn more

10-Day Weather Forecast

Advertisements
Track Severe Weather on mobile